sensor_id;sensor_type;location;lat;lon;timestamp;pressure;altitude;pressure_sealevel;temperature;humidity
49943;BME280;36011;53.362;58.948;2023-06-14T00:02:53;97586.94;;;9.79;49.14
49943;BME280;36011;53.362;58.948;2023-06-14T00:05:59;97585.16;;;9.79;49.48
49943;BME280;36011;53.362;58.948;2023-06-14T00:09:09;97600.81;;;9.82;49.89
49943;BME280;36011;53.362;58.948;2023-06-14T00:12:15;97605.91;;;9.85;49.86
49943;BME280;36011;53.362;58.948;2023-06-14T00:15:19;97600.03;;;9.80;49.87
49943;BME280;36011;53.362;58.948;2023-06-14T00:18:23;97605.13;;;9.83;50.06
49943;BME280;36011;53.362;58.948;2023-06-14T00:21:35;97601.72;;;9.81;50.26
49943;BME280;36011;53.362;58.948;2023-06-14T00:24:43;97590.00;;;9.71;50.49
49943;BME280;36011;53.362;58.948;2023-06-14T00:27:48;97607.13;;;9.78;50.52
49943;BME280;36011;53.362;58.948;2023-06-14T00:30:53;97600.66;;;9.85;50.39
49943;BME280;36011;53.362;58.948;2023-06-14T00:34:01;97603.59;;;9.97;50.28
49943;BME280;36011;53.362;58.948;2023-06-14T00:37:07;97599.56;;;10.07;49.74
49943;BME280;36011;53.362;58.948;2023-06-14T00:40:14;97598.31;;;10.14;49.21
49943;BME280;36011;53.362;58.948;2023-06-14T00:43:23;97605.97;;;10.19;49.00
49943;BME280;36011;53.362;58.948;2023-06-14T00:46:27;97596.31;;;10.19;48.88
49943;BME280;36011;53.362;58.948;2023-06-14T00:49:31;97594.44;;;10.21;48.96
49943;BME280;36011;53.362;58.948;2023-06-14T00:52:40;97604.53;;;10.30;48.52
49943;BME280;36011;53.362;58.948;2023-06-14T00:55:41;97606.66;;;10.40;48.44
49943;BME280;36011;53.362;58.948;2023-06-14T00:58:43;97603.03;;;10.42;48.74
49943;BME280;36011;53.362;58.948;2023-06-14T01:01:48;97602.88;;;10.45;48.64
49943;BME280;36011;53.362;58.948;2023-06-14T01:04:53;97608.41;;;10.56;48.64
49943;BME280;36011;53.362;58.948;2023-06-14T01:11:50;97604.28;;;10.68;48.63
49943;BME280;36011;53.362;58.948;2023-06-14T01:14:59;97605.78;;;10.72;48.71
49943;BME280;36011;53.362;58.948;2023-06-14T01:18:04;97606.34;;;10.79;48.78
49943;BME280;36011;53.362;58.948;2023-06-14T01:21:23;97614.22;;;10.95;49.19
49943;BME280;36011;53.362;58.948;2023-06-14T01:24:28;97621.78;;;11.01;48.60
49943;BME280;36011;53.362;58.948;2023-06-14T01:27:38;97623.84;;;11.12;48.09
49943;BME280;36011;53.362;58.948;2023-06-14T01:30:47;97621.56;;;11.21;47.79
49943;BME280;36011;53.362;58.948;2023-06-14T01:33:52;97620.44;;;11.26;47.70
49943;BME280;36011;53.362;58.948;2023-06-14T01:36:59;97620.69;;;11.37;47.82
49943;BME280;36011;53.362;58.948;2023-06-14T01:40:04;97620.94;;;11.48;47.64
49943;BME280;36011;53.362;58.948;2023-06-14T01:43:09;97622.13;;;11.58;47.32
49943;BME280;36011;53.362;58.948;2023-06-14T01:46:14;97622.56;;;11.66;46.93
49943;BME280;36011;53.362;58.948;2023-06-14T01:49:23;97620.88;;;11.80;46.68
49943;BME280;36011;53.362;58.948;2023-06-14T01:52:30;97618.50;;;11.91;46.30
49943;BME280;36011;53.362;58.948;2023-06-14T01:55:34;97632.94;;;12.00;45.98
49943;BME280;36011;53.362;58.948;2023-06-14T01:58:40;97631.38;;;12.11;45.72
49943;BME280;36011;53.362;58.948;2023-06-14T02:01:48;97633.50;;;12.21;45.34
49943;BME280;36011;53.362;58.948;2023-06-14T02:04:52;97641.22;;;12.24;45.19
49943;BME280;36011;53.362;58.948;2023-06-14T02:07:57;97633.19;;;12.25;44.98
49943;BME280;36011;53.362;58.948;2023-06-14T02:11:01;97628.88;;;12.24;44.69
49943;BME280;36011;53.362;58.948;2023-06-14T02:14:02;97633.88;;;12.29;44.69
49943;BME280;36011;53.362;58.948;2023-06-14T02:17:07;97634.28;;;12.37;44.89
49943;BME280;36011;53.362;58.948;2023-06-14T02:20:09;97627.69;;;12.44;44.57
49943;BME280;36011;53.362;58.948;2023-06-14T02:23:13;97621.63;;;12.42;44.31
49943;BME280;36011;53.362;58.948;2023-06-14T02:26:14;97630.50;;;12.55;44.06
49943;BME280;36011;53.362;58.948;2023-06-14T02:29:18;97619.31;;;12.52;43.92
49943;BME280;36011;53.362;58.948;2023-06-14T02:32:26;97617.50;;;12.67;43.69
49943;BME280;36011;53.362;58.948;2023-06-14T02:35:34;97631.28;;;12.72;43.21
49943;BME280;36011;53.362;58.948;2023-06-14T02:38:37;97618.84;;;12.74;43.19
49943;BME280;36011;53.362;58.948;2023-06-14T02:41:44;97623.75;;;12.80;42.94
49943;BME280;36011;53.362;58.948;2023-06-14T02:44:51;97605.16;;;12.81;42.92
49943;BME280;36011;53.362;58.948;2023-06-14T02:47:55;97613.56;;;12.88;43.10
49943;BME280;36011;53.362;58.948;2023-06-14T02:50:59;97608.81;;;12.93;42.63
49943;BME280;36011;53.362;58.948;2023-06-14T02:54:04;97617.94;;;13.02;42.25
49943;BME280;36011;53.362;58.948;2023-06-14T02:57:05;97610.38;;;13.10;41.97
49943;BME280;36011;53.362;58.948;2023-06-14T03:00:08;97607.06;;;13.21;41.71
49943;BME280;36011;53.362;58.948;2023-06-14T03:03:11;97614.44;;;13.30;41.61
49943;BME280;36011;53.362;58.948;2023-06-14T03:06:19;97601.91;;;13.34;41.09
49943;BME280;36011;53.362;58.948;2023-06-14T03:09:24;97606.59;;;13.43;40.55
49943;BME280;36011;53.362;58.948;2023-06-14T03:12:28;97598.16;;;13.51;40.14
49943;BME280;36011;53.362;58.948;2023-06-14T03:15:32;97597.56;;;13.60;40.26
49943;BME280;36011;53.362;58.948;2023-06-14T03:18:37;97601.28;;;13.70;40.31
49943;BME280;36011;53.362;58.948;2023-06-14T03:21:44;97596.13;;;13.81;40.19
49943;BME280;36011;53.362;58.948;2023-06-14T03:24:49;97597.97;;;13.93;40.01
49943;BME280;36011;53.362;58.948;2023-06-14T03:27:56;97585.78;;;14.04;39.82
49943;BME280;36011;53.362;58.948;2023-06-14T03:31:03;97595.78;;;14.13;38.87
49943;BME280;36011;53.362;58.948;2023-06-14T03:34:14;97575.13;;;14.18;38.99
49943;BME280;36011;53.362;58.948;2023-06-14T03:37:22;97573.75;;;14.25;38.79
49943;BME280;36011;53.362;58.948;2023-06-14T03:40:28;97569.94;;;14.29;38.73
49943;BME280;36011;53.362;58.948;2023-06-14T03:43:32;97581.16;;;14.46;38.09
49943;BME280;36011;53.362;58.948;2023-06-14T03:46:39;97562.41;;;14.49;37.70
49943;BME280;36011;53.362;58.948;2023-06-14T03:49:44;97568.38;;;14.65;37.45
49943;BME280;36011;53.362;58.948;2023-06-14T03:52:48;97561.50;;;14.75;37.78
49943;BME280;36011;53.362;58.948;2023-06-14T03:55:52;97558.72;;;14.90;37.78
49943;BME280;36011;53.362;58.948;2023-06-14T03:58:57;97551.78;;;15.00;37.08
49943;BME280;36011;53.362;58.948;2023-06-14T04:01:58;97549.19;;;15.11;36.65
49943;BME280;36011;53.362;58.948;2023-06-14T04:05:04;97538.88;;;15.19;36.14
49943;BME280;36011;53.362;58.948;2023-06-14T04:08:09;97545.00;;;15.33;36.03
49943;BME280;36011;53.362;58.948;2023-06-14T04:11:14;97551.31;;;15.43;35.93
49943;BME280;36011;53.362;58.948;2023-06-14T04:14:15;97536.41;;;15.53;35.79
49943;BME280;36011;53.362;58.948;2023-06-14T04:17:19;97553.09;;;15.66;35.84
49943;BME280;36011;53.362;58.948;2023-06-14T04:20:20;97543.66;;;15.75;35.50
49943;BME280;36011;53.362;58.948;2023-06-14T04:23:25;97555.50;;;15.93;35.31
49943;BME280;36011;53.362;58.948;2023-06-14T04:26:31;97550.13;;;16.06;34.76
49943;BME280;36011;53.362;58.948;2023-06-14T04:29:39;97554.72;;;16.15;34.36
49943;BME280;36011;53.362;58.948;2023-06-14T04:32:43;97551.25;;;16.26;33.88
49943;BME280;36011;53.362;58.948;2023-06-14T04:35:44;97552.59;;;16.43;34.13
49943;BME280;36011;53.362;58.948;2023-06-14T04:38:48;97557.19;;;16.52;33.80
49943;BME280;36011;53.362;58.948;2023-06-14T04:41:50;97555.75;;;16.71;33.58
49943;BME280;36011;53.362;58.948;2023-06-14T04:45:03;97559.78;;;17.42;32.33
49943;BME280;36011;53.362;58.948;2023-06-14T04:48:04;97556.81;;;20.12;28.83
49943;BME280;36011;53.362;58.948;2023-06-14T04:51:08;97552.16;;;23.46;24.83
49943;BME280;36011;53.362;58.948;2023-06-14T04:54:14;97570.84;;;26.42;22.04
49943;BME280;36011;53.362;58.948;2023-06-14T04:57:20;97573.28;;;29.06;19.39
49943;BME280;36011;53.362;58.948;2023-06-14T05:00:30;97583.94;;;31.10;18.01
49943;BME280;36011;53.362;58.948;2023-06-14T05:03:36;97570.50;;;33.19;15.63
49943;BME280;36011;53.362;58.948;2023-06-14T05:06:39;97565.66;;;35.07;14.05
49943;BME280;36011;53.362;58.948;2023-06-14T05:09:43;97571.41;;;36.44;13.36
49943;BME280;36011;53.362;58.948;2023-06-14T05:12:49;97577.84;;;37.61;12.30
49943;BME280;36011;53.362;58.948;2023-06-14T05:15:55;97570.56;;;39.81;10.79
49943;BME280;36011;53.362;58.948;2023-06-14T05:18:59;97573.53;;;42.18;9.21
49943;BME280;36011;53.362;58.948;2023-06-14T05:22:09;97571.88;;;43.44;8.63
49943;BME280;36011;53.362;58.948;2023-06-14T05:25:16;97570.75;;;44.12;8.48
49943;BME280;36011;53.362;58.948;2023-06-14T05:28:23;97567.59;;;44.37;8.37
49943;BME280;36011;53.362;58.948;2023-06-14T05:31:28;97563.09;;;45.76;7.67
49943;BME280;36011;53.362;58.948;2023-06-14T05:34:32;97565.56;;;46.95;6.92
49943;BME280;36011;53.362;58.948;2023-06-14T05:37:36;97560.63;;;47.72;6.44
49943;BME280;36011;53.362;58.948;2023-06-14T05:40:42;97568.59;;;48.66;6.09
49943;BME280;36011;53.362;58.948;2023-06-14T05:43:45;97555.50;;;49.60;5.60
49943;BME280;36011;53.362;58.948;2023-06-14T05:46:51;97545.63;;;48.43;5.59
49943;BME280;36011;53.362;58.948;2023-06-14T05:49:56;97552.31;;;47.98;5.52
49943;BME280;36011;53.362;58.948;2023-06-14T05:53:00;97545.00;;;46.83;6.23
49943;BME280;36011;53.362;58.948;2023-06-14T05:56:09;97530.31;;;46.91;6.15
49943;BME280;36011;53.362;58.948;2023-06-14T05:59:13;97530.66;;;47.95;5.74
49943;BME280;36011;53.362;58.948;2023-06-14T06:02:18;97541.19;;;48.50;5.44
49943;BME280;36011;53.362;58.948;2023-06-14T06:05:23;97536.19;;;48.82;5.38
49943;BME280;36011;53.362;58.948;2023-06-14T06:08:28;97529.16;;;49.82;4.96
49943;BME280;36011;53.362;58.948;2023-06-14T06:11:33;97539.78;;;49.98;5.16
49943;BME280;36011;53.362;58.948;2023-06-14T06:14:40;97522.13;;;48.61;5.35
49943;BME280;36011;53.362;58.948;2023-06-14T06:17:50;97524.41;;;48.68;5.82
49943;BME280;36011;53.362;58.948;2023-06-14T06:20:54;97510.91;;;48.87;5.44
49943;BME280;36011;53.362;58.948;2023-06-14T06:24:02;97515.88;;;50.21;4.95
49943;BME280;36011;53.362;58.948;2023-06-14T06:27:10;97514.16;;;49.66;4.80
49943;BME280;36011;53.362;58.948;2023-06-14T06:30:17;97509.81;;;48.01;6.14
49943;BME280;36011;53.362;58.948;2023-06-14T06:33:23;97493.91;;;48.37;5.28
49943;BME280;36011;53.362;58.948;2023-06-14T06:36:31;97498.22;;;49.28;5.00
49943;BME280;36011;53.362;58.948;2023-06-14T06:39:37;97493.25;;;47.79;5.38
49943;BME280;36011;53.362;58.948;2023-06-14T06:42:41;97472.09;;;46.27;6.09
49943;BME280;36011;53.362;58.948;2023-06-14T06:45:45;97474.31;;;45.80;6.43
49943;BME280;36011;53.362;58.948;2023-06-14T06:48:49;97480.44;;;47.12;5.80
49943;BME280;36011;53.362;58.948;2023-06-14T06:52:01;97483.44;;;48.81;5.28
49943;BME280;36011;53.362;58.948;2023-06-14T06:55:05;97482.78;;;49.81;4.91
49943;BME280;36011;53.362;58.948;2023-06-14T06:58:14;97478.56;;;49.16;4.89
49943;BME280;36011;53.362;58.948;2023-06-14T07:01:17;97481.44;;;48.08;5.57
49943;BME280;36011;53.362;58.948;2023-06-14T07:04:19;97475.66;;;48.48;5.35
49943;BME280;36011;53.362;58.948;2023-06-14T07:07:24;97466.13;;;49.34;5.19
49943;BME280;36011;53.362;58.948;2023-06-14T07:10:28;97474.00;;;51.28;4.60
49943;BME280;36011;53.362;58.948;2023-06-14T07:13:34;97468.19;;;53.18;4.25
49943;BME280;36011;53.362;58.948;2023-06-14T07:16:40;97479.69;;;52.81;3.82
49943;BME280;36011;53.362;58.948;2023-06-14T07:19:47;97471.22;;;51.81;4.33
49943;BME280;36011;53.362;58.948;2023-06-14T07:22:51;97466.03;;;50.48;4.50
49943;BME280;36011;53.362;58.948;2023-06-14T07:25:55;97458.47;;;48.02;5.45
49943;BME280;36011;53.362;58.948;2023-06-14T07:29:00;97460.63;;;47.79;5.72
49943;BME280;36011;53.362;58.948;2023-06-14T07:32:06;97455.22;;;49.12;5.04
49943;BME280;36011;53.362;58.948;2023-06-14T07:35:10;97454.84;;;49.22;4.70
49943;BME280;36011;53.362;58.948;2023-06-14T07:38:15;97455.34;;;48.30;5.13
49943;BME280;36011;53.362;58.948;2023-06-14T07:41:19;97440.91;;;48.75;4.95
49943;BME280;36011;53.362;58.948;2023-06-14T07:44:23;97440.72;;;50.11;4.69
49943;BME280;36011;53.362;58.948;2023-06-14T07:47:26;97439.00;;;51.75;4.24
49943;BME280;36011;53.362;58.948;2023-06-14T07:50:34;97441.63;;;51.96;3.92
49943;BME280;36011;53.362;58.948;2023-06-14T07:53:40;97426.78;;;50.23;4.12
49943;BME280;36011;53.362;58.948;2023-06-14T07:56:48;97426.28;;;48.13;4.88
49943;BME280;36011;53.362;58.948;2023-06-14T07:59:54;97408.84;;;46.72;5.97
49943;BME280;36011;53.362;58.948;2023-06-14T08:03:01;97408.28;;;45.63;6.31
49943;BME280;36011;53.362;58.948;2023-06-14T08:06:08;97395.44;;;43.96;6.94
49943;BME280;36011;53.362;58.948;2023-06-14T08:09:14;97392.03;;;44.18;7.25
49943;BME280;36011;53.362;58.948;2023-06-14T08:12:19;97392.72;;;45.12;6.86
49943;BME280;36011;53.362;58.948;2023-06-14T08:15:25;97381.13;;;44.22;7.48
49943;BME280;36011;53.362;58.948;2023-06-14T08:18:30;97390.56;;;43.55;7.68
49943;BME280;36011;53.362;58.948;2023-06-14T08:21:35;97378.94;;;43.10;8.46
49943;BME280;36011;53.362;58.948;2023-06-14T08:24:41;97371.94;;;42.75;8.33
49943;BME280;36011;53.362;58.948;2023-06-14T08:27:48;97368.44;;;42.11;8.54
49943;BME280;36011;53.362;58.948;2023-06-14T08:30:54;97364.09;;;41.26;8.84
49943;BME280;36011;53.362;58.948;2023-06-14T08:33:59;97365.78;;;40.47;9.00
49943;BME280;36011;53.362;58.948;2023-06-14T08:37:03;97353.31;;;40.59;9.18
49943;BME280;36011;53.362;58.948;2023-06-14T08:40:23;97360.19;;;40.72;9.28
49943;BME280;36011;53.362;58.948;2023-06-14T08:43:28;97347.38;;;39.86;9.49
49943;BME280;36011;53.362;58.948;2023-06-14T08:46:36;97351.75;;;40.17;9.36
49943;BME280;36011;53.362;58.948;2023-06-14T08:49:42;97340.06;;;41.66;9.08
49943;BME280;36011;53.362;58.948;2023-06-14T08:52:54;97343.22;;;42.47;8.36
49943;BME280;36011;53.362;58.948;2023-06-14T08:56:02;97343.13;;;43.19;7.97
49943;BME280;36011;53.362;58.948;2023-06-14T08:59:10;97337.25;;;42.82;7.87
49943;BME280;36011;53.362;58.948;2023-06-14T09:02:18;97333.41;;;42.01;8.14
49943;BME280;36011;53.362;58.948;2023-06-14T09:05:28;97322.63;;;40.81;8.64
49943;BME280;36011;53.362;58.948;2023-06-14T09:08:33;97327.09;;;40.72;9.38
49943;BME280;36011;53.362;58.948;2023-06-14T09:11:41;97333.09;;;41.34;8.67
49943;BME280;36011;53.362;58.948;2023-06-14T09:14:46;97350.63;;;40.39;9.02
49943;BME280;36011;53.362;58.948;2023-06-14T09:17:51;97339.78;;;38.89;9.55
49943;BME280;36011;53.362;58.948;2023-06-14T09:20:58;97329.81;;;38.25;10.00
49943;BME280;36011;53.362;58.948;2023-06-14T09:24:03;97321.56;;;38.83;9.61
49943;BME280;36011;53.362;58.948;2023-06-14T09:27:14;97310.69;;;38.40;10.14
49943;BME280;36011;53.362;58.948;2023-06-14T09:30:20;97310.78;;;38.08;10.58
49943;BME280;36011;53.362;58.948;2023-06-14T09:33:26;97309.88;;;37.97;10.40
49943;BME280;36011;53.362;58.948;2023-06-14T09:36:32;97316.16;;;37.28;10.65
49943;BME280;36011;53.362;58.948;2023-06-14T09:39:49;97301.09;;;36.38;11.18
49943;BME280;36011;53.362;58.948;2023-06-14T09:42:55;97306.69;;;36.92;11.45
49943;BME280;36011;53.362;58.948;2023-06-14T09:46:02;97298.59;;;37.62;10.98
49943;BME280;36011;53.362;58.948;2023-06-14T09:49:08;97288.66;;;37.56;10.90
49943;BME280;36011;53.362;58.948;2023-06-14T09:52:17;97288.75;;;36.57;10.94
49943;BME280;36011;53.362;58.948;2023-06-14T09:55:23;97271.44;;;36.35;11.28
49943;BME280;36011;53.362;58.948;2023-06-14T09:58:30;97279.66;;;36.35;11.22
49943;BME280;36011;53.362;58.948;2023-06-14T10:01:41;97265.53;;;35.65;11.48
49943;BME280;36011;53.362;58.948;2023-06-14T10:04:50;97274.03;;;35.18;12.55
49943;BME280;36011;53.362;58.948;2023-06-14T10:08:08;97266.63;;;35.64;12.03
49943;BME280;36011;53.362;58.948;2023-06-14T10:11:15;97268.28;;;36.04;11.32
49943;BME280;36011;53.362;58.948;2023-06-14T10:14:21;97260.50;;;36.13;11.53
49943;BME280;36011;53.362;58.948;2023-06-14T10:17:42;97262.97;;;36.14;11.59
49943;BME280;36011;53.362;58.948;2023-06-14T10:21:05;97261.22;;;35.69;12.43
49943;BME280;36011;53.362;58.948;2023-06-14T10:24:17;97264.19;;;35.17;12.22
49943;BME280;36011;53.362;58.948;2023-06-14T10:27:25;97249.16;;;34.46;12.94
49943;BME280;36011;53.362;58.948;2023-06-14T10:30:30;97252.41;;;34.19;13.30
49943;BME280;36011;53.362;58.948;2023-06-14T10:33:57;97246.38;;;34.86;13.08
49943;BME280;36011;53.362;58.948;2023-06-14T10:37:06;97239.84;;;35.04;13.35
49943;BME280;36011;53.362;58.948;2023-06-14T10:40:30;97235.63;;;35.59;13.19
49943;BME280;36011;53.362;58.948;2023-06-14T10:43:36;97226.44;;;34.57;13.19
49943;BME280;36011;53.362;58.948;2023-06-14T10:53:23;97217.91;;;32.77;14.40
49943;BME280;36011;53.362;58.948;2023-06-14T10:56:32;97206.41;;;32.45;14.94
49943;BME280;36011;53.362;58.948;2023-06-14T10:59:37;97212.69;;;32.27;14.86
49943;BME280;36011;53.362;58.948;2023-06-14T11:06:16;97204.19;;;32.35;15.27
49943;BME280;36011;53.362;58.948;2023-06-14T11:13:12;97199.44;;;31.38;15.78
49943;BME280;36011;53.362;58.948;2023-06-14T11:16:19;97188.19;;;30.39;16.54
49943;BME280;36011;53.362;58.948;2023-06-14T11:19:24;97191.78;;;30.65;16.61
49943;BME280;36011;53.362;58.948;2023-06-14T11:22:29;97178.56;;;30.75;16.58
49943;BME280;36011;53.362;58.948;2023-06-14T11:25:33;97167.38;;;30.20;16.59
49943;BME280;36011;53.362;58.948;2023-06-14T11:28:39;97155.22;;;29.91;17.12
49943;BME280;36011;53.362;58.948;2023-06-14T11:31:47;97165.56;;;29.56;17.64
49943;BME280;36011;53.362;58.948;2023-06-14T11:34:51;97167.19;;;29.76;17.44
49943;BME280;36011;53.362;58.948;2023-06-14T11:38:01;97156.03;;;29.98;17.16
49943;BME280;36011;53.362;58.948;2023-06-14T11:41:07;97151.78;;;30.09;17.23
49943;BME280;36011;53.362;58.948;2023-06-14T11:44:13;97145.47;;;30.28;17.14
49943;BME280;36011;53.362;58.948;2023-06-14T11:47:17;97139.34;;;29.94;17.40
49943;BME280;36011;53.362;58.948;2023-06-14T11:50:20;97122.66;;;28.73;18.24
49943;BME280;36011;53.362;58.948;2023-06-14T11:53:27;97129.88;;;28.12;18.77
49943;BME280;36011;53.362;58.948;2023-06-14T11:56:32;97143.69;;;27.83;18.96
49943;BME280;36011;53.362;58.948;2023-06-14T11:59:40;97128.06;;;27.78;19.15
49943;BME280;36011;53.362;58.948;2023-06-14T12:02:53;97130.56;;;27.80;19.58
49943;BME280;36011;53.362;58.948;2023-06-14T12:06:09;97122.69;;;27.85;19.57
49943;BME280;36011;53.362;58.948;2023-06-14T12:09:11;97114.72;;;27.76;19.37
49943;BME280;36011;53.362;58.948;2023-06-14T12:12:18;97116.09;;;28.01;19.15
49943;BME280;36011;53.362;58.948;2023-06-14T12:15:22;97109.47;;;28.16;18.88
49943;BME280;36011;53.362;58.948;2023-06-14T12:18:39;97127.00;;;28.34;19.16
49943;BME280;36011;53.362;58.948;2023-06-14T12:21:45;97109.88;;;28.00;18.88
49943;BME280;36011;53.362;58.948;2023-06-14T12:24:51;97121.94;;;27.63;19.57
49943;BME280;36011;53.362;58.948;2023-06-14T12:28:03;97125.63;;;27.83;19.18
49943;BME280;36011;53.362;58.948;2023-06-14T12:31:05;97106.97;;;28.08;18.92
49943;BME280;36011;53.362;58.948;2023-06-14T12:34:07;97100.75;;;28.28;18.73
49943;BME280;36011;53.362;58.948;2023-06-14T12:37:11;97100.28;;;28.04;19.05
49943;BME280;36011;53.362;58.948;2023-06-14T12:40:15;97095.97;;;27.68;19.56
49943;BME280;36011;53.362;58.948;2023-06-14T12:43:21;97093.50;;;27.67;19.67
49943;BME280;36011;53.362;58.948;2023-06-14T12:46:25;97088.69;;;27.62;19.38
49943;BME280;36011;53.362;58.948;2023-06-14T12:49:32;97087.47;;;27.23;19.79
49943;BME280;36011;53.362;58.948;2023-06-14T12:52:44;97081.06;;;27.03;20.18
49943;BME280;36011;53.362;58.948;2023-06-14T12:55:55;97092.25;;;26.93;20.13
49943;BME280;36011;53.362;58.948;2023-06-14T12:59:00;97081.91;;;26.47;20.38
49943;BME280;36011;53.362;58.948;2023-06-14T13:02:15;97078.38;;;26.25;21.01
49943;BME280;36011;53.362;58.948;2023-06-14T13:05:21;97073.03;;;25.89;21.42
49943;BME280;36011;53.362;58.948;2023-06-14T13:08:26;97070.91;;;25.84;21.65
49943;BME280;36011;53.362;58.948;2023-06-14T13:11:27;97066.31;;;26.00;21.27
49943;BME280;36011;53.362;58.948;2023-06-14T13:14:28;97068.28;;;26.12;21.21
49943;BME280;36011;53.362;58.948;2023-06-14T13:17:29;97066.75;;;26.03;21.21
49943;BME280;36011;53.362;58.948;2023-06-14T13:20:39;97069.31;;;25.90;21.38
49943;BME280;36011;53.362;58.948;2023-06-14T13:23:43;97069.91;;;25.85;21.29
49943;BME280;36011;53.362;58.948;2023-06-14T13:26:47;97066.16;;;25.86;21.56
49943;BME280;36011;53.362;58.948;2023-06-14T13:29:51;97057.59;;;25.46;21.36
49943;BME280;36011;53.362;58.948;2023-06-14T13:32:53;97059.19;;;25.41;21.46
49943;BME280;36011;53.362;58.948;2023-06-14T13:35:59;97055.75;;;25.32;21.99
49943;BME280;36011;53.362;58.948;2023-06-14T13:39:03;97059.88;;;25.28;21.71
49943;BME280;36011;53.362;58.948;2023-06-14T13:42:05;97053.56;;;25.21;21.65
49943;BME280;36011;53.362;58.948;2023-06-14T13:45:11;97066.78;;;25.07;22.21
49943;BME280;36011;53.362;58.948;2023-06-14T13:48:12;97056.78;;;24.86;22.38
49943;BME280;36011;53.362;58.948;2023-06-14T13:51:16;97050.16;;;24.59;22.59
49943;BME280;36011;53.362;58.948;2023-06-14T13:54:22;97044.09;;;24.19;23.15
49943;BME280;36011;53.362;58.948;2023-06-14T13:57:29;97036.19;;;24.41;22.87
49943;BME280;36011;53.362;58.948;2023-06-14T14:00:33;97034.66;;;24.61;22.34
49943;BME280;36011;53.362;58.948;2023-06-14T14:03:35;97030.19;;;24.54;22.67
49943;BME280;36011;53.362;58.948;2023-06-14T14:06:39;97028.44;;;24.46;22.93
49943;BME280;36011;53.362;58.948;2023-06-14T14:09:41;97021.53;;;24.06;23.25
49943;BME280;36011;53.362;58.948;2023-06-14T14:12:43;97025.84;;;23.92;23.67
49943;BME280;36011;53.362;58.948;2023-06-14T14:15:53;97015.41;;;23.66;23.79
49943;BME280;36011;53.362;58.948;2023-06-14T14:18:55;97008.19;;;23.66;23.56
49943;BME280;36011;53.362;58.948;2023-06-14T14:21:56;97010.41;;;23.63;23.73
49943;BME280;36011;53.362;58.948;2023-06-14T14:25:00;97008.06;;;23.60;23.65
49943;BME280;36011;53.362;58.948;2023-06-14T14:28:04;97005.22;;;23.61;23.38
49943;BME280;36011;53.362;58.948;2023-06-14T14:31:08;96995.41;;;23.68;23.28
49943;BME280;36011;53.362;58.948;2023-06-14T14:34:12;97000.03;;;23.83;23.56
49943;BME280;36011;53.362;58.948;2023-06-14T14:37:16;96997.75;;;23.94;23.35
49943;BME280;36011;53.362;58.948;2023-06-14T14:40:17;96997.59;;;23.96;23.71
49943;BME280;36011;53.362;58.948;2023-06-14T14:43:23;97004.63;;;23.97;23.55
49943;BME280;36011;53.362;58.948;2023-06-14T14:46:27;97004.13;;;23.79;24.04
49943;BME280;36011;53.362;58.948;2023-06-14T14:49:32;96998.81;;;23.62;24.37
49943;BME280;36011;53.362;58.948;2023-06-14T14:52:35;97006.94;;;23.54;24.48
49943;BME280;36011;53.362;58.948;2023-06-14T14:55:42;97001.97;;;23.43;24.64
49943;BME280;36011;53.362;58.948;2023-06-14T14:58:45;96997.03;;;23.23;24.93
49943;BME280;36011;53.362;58.948;2023-06-14T15:01:47;96989.06;;;23.07;25.54
49943;BME280;36011;53.362;58.948;2023-06-14T15:04:49;96977.88;;;22.95;25.55
49943;BME280;36011;53.362;58.948;2023-06-14T15:07:51;96997.19;;;22.82;25.95
49943;BME280;36011;53.362;58.948;2023-06-14T15:10:55;96984.47;;;22.84;25.94
49943;BME280;36011;53.362;58.948;2023-06-14T15:13:56;96985.78;;;22.89;25.99
49943;BME280;36011;53.362;58.948;2023-06-14T15:17:01;96987.78;;;22.86;26.87
49943;BME280;36011;53.362;58.948;2023-06-14T15:20:03;96986.59;;;22.89;26.96
49943;BME280;36011;53.362;58.948;2023-06-14T15:23:07;96985.41;;;22.92;26.78
49943;BME280;36011;53.362;58.948;2023-06-14T15:26:09;96981.59;;;22.86;27.00
49943;BME280;36011;53.362;58.948;2023-06-14T15:29:13;96982.41;;;22.86;27.24
49943;BME280;36011;53.362;58.948;2023-06-14T15:32:18;96976.53;;;22.91;27.37
49943;BME280;36011;53.362;58.948;2023-06-14T15:35:22;96977.03;;;22.86;27.50
49943;BME280;36011;53.362;58.948;2023-06-14T15:38:24;96978.59;;;22.73;27.96
49943;BME280;36011;53.362;58.948;2023-06-14T15:41:25;96973.25;;;22.64;28.10
49943;BME280;36011;53.362;58.948;2023-06-14T15:44:27;96984.63;;;22.83;28.20
49943;BME280;36011;53.362;58.948;2023-06-14T15:47:33;96982.09;;;22.81;28.36
49943;BME280;36011;53.362;58.948;2023-06-14T15:50:42;96986.47;;;22.82;28.32
49943;BME280;36011;53.362;58.948;2023-06-14T15:53:48;96984.16;;;22.71;28.43
49943;BME280;36011;53.362;58.948;2023-06-14T15:56:52;96985.38;;;22.60;28.61
49943;BME280;36011;53.362;58.948;2023-06-14T15:59:53;96982.03;;;22.50;28.64
49943;BME280;36011;53.362;58.948;2023-06-14T16:02:58;96988.59;;;22.39;28.76
49943;BME280;36011;53.362;58.948;2023-06-14T16:05:59;96984.25;;;22.30;28.69
49943;BME280;36011;53.362;58.948;2023-06-14T16:09:00;96983.94;;;22.09;29.22
49943;BME280;36011;53.362;58.948;2023-06-14T16:12:06;96982.25;;;21.83;29.75
49943;BME280;36011;53.362;58.948;2023-06-14T16:15:08;96975.88;;;21.68;30.17
49943;BME280;36011;53.362;58.948;2023-06-14T16:18:10;96972.19;;;21.44;30.51
49943;BME280;36011;53.362;58.948;2023-06-14T16:21:15;96978.47;;;21.27;30.85
49943;BME280;36011;53.362;58.948;2023-06-14T16:24:19;96979.47;;;21.18;31.04
49943;BME280;36011;53.362;58.948;2023-06-14T16:27:23;96977.09;;;21.06;31.17
49943;BME280;36011;53.362;58.948;2023-06-14T16:30:29;96991.44;;;21.05;31.37
49943;BME280;36011;53.362;58.948;2023-06-14T16:33:33;96986.75;;;20.99;31.62